createdAt,value
2018-08-11T00:00:13.515Z,21.40
2018-08-11T00:00:45.279Z,21.40
2018-08-11T00:01:17.063Z,21.40
2018-08-11T00:01:48.841Z,21.40
2018-08-11T00:02:20.588Z,21.30
2018-08-11T00:02:52.369Z,21.40
2018-08-11T00:03:24.143Z,21.40
2018-08-11T00:03:55.915Z,21.40
2018-08-11T00:04:27.677Z,21.40
2018-08-11T00:04:59.436Z,21.30
2018-08-11T00:05:31.211Z,21.30
2018-08-11T00:06:02.975Z,21.20
2018-08-11T00:06:34.756Z,21.30
2018-08-11T00:07:06.521Z,21.40
2018-08-11T00:07:38.288Z,21.30
2018-08-11T00:08:10.052Z,21.30
2018-08-11T00:08:41.815Z,21.40
2018-08-11T00:09:13.572Z,21.40
2018-08-11T00:09:45.351Z,21.40
2018-08-11T00:10:17.102Z,21.40
2018-08-11T00:10:48.848Z,21.40
2018-08-11T00:11:20.639Z,21.30
2018-08-11T00:11:52.420Z,21.20
2018-08-11T00:12:24.188Z,21.20
2018-08-11T00:12:55.957Z,21.20
2018-08-11T00:13:27.731Z,21.20
2018-08-11T00:13:59.517Z,21.20
2018-08-11T00:14:31.344Z,21.20
2018-08-11T00:15:03.109Z,21.20
2018-08-11T00:15:34.895Z,21.30
2018-08-11T00:16:06.652Z,21.30
2018-08-11T00:16:38.405Z,21.40
2018-08-11T00:17:10.190Z,21.40
2018-08-11T00:17:41.950Z,21.40
2018-08-11T00:18:13.705Z,21.30
2018-08-11T00:18:45.471Z,21.40
2018-08-11T00:19:17.237Z,21.40
2018-08-11T00:19:49.001Z,21.40
2018-08-11T00:20:20.759Z,21.50
2018-08-11T00:20:52.532Z,21.60
2018-08-11T00:21:24.283Z,21.60
2018-08-11T00:21:56.046Z,21.60
2018-08-11T00:22:27.821Z,21.60
2018-08-11T00:22:59.591Z,21.70
2018-08-11T00:23:31.360Z,21.70
2018-08-11T00:24:03.151Z,21.70
2018-08-11T00:24:34.901Z,21.70
2018-08-11T00:25:06.665Z,21.70
2018-08-11T00:25:38.441Z,21.60
2018-08-11T00:26:10.232Z,21.60
2018-08-11T00:26:42.009Z,21.70
2018-08-11T00:27:13.872Z,21.70
2018-08-11T00:27:45.632Z,21.70
2018-08-11T00:28:17.418Z,21.70
2018-08-11T00:28:49.190Z,21.60
2018-08-11T00:29:20.951Z,21.60
2018-08-11T00:29:52.705Z,21.60
2018-08-11T00:30:24.463Z,21.60
2018-08-11T00:30:56.227Z,21.60
2018-08-11T00:31:27.979Z,21.60
2018-08-11T00:31:59.779Z,21.50
2018-08-11T00:32:31.529Z,21.40
2018-08-11T00:33:03.326Z,21.40
2018-08-11T00:33:35.144Z,21.40
2018-08-11T00:34:06.925Z,21.40
2018-08-11T00:34:38.702Z,21.40
2018-08-11T00:35:10.457Z,21.40
2018-08-11T00:35:42.251Z,21.40
2018-08-11T00:36:14.038Z,21.40
2018-08-11T00:36:45.797Z,21.50
2018-08-11T00:37:17.566Z,21.40
2018-08-11T00:37:49.336Z,21.60
2018-08-11T00:38:21.097Z,21.50
2018-08-11T00:38:52.968Z,21.60
2018-08-11T00:39:24.708Z,21.60
2018-08-11T00:39:56.569Z,21.70
2018-08-11T00:40:28.328Z,21.70
2018-08-11T00:41:00.102Z,21.80
2018-08-11T00:41:31.867Z,21.80
2018-08-11T00:42:03.634Z,21.90
2018-08-11T00:42:35.415Z,21.90
2018-08-11T00:43:07.156Z,22.00
2018-08-11T00:43:38.929Z,22.00
2018-08-11T00:44:10.696Z,22.00
2018-08-11T00:44:42.470Z,21.90
2018-08-11T00:45:14.225Z,22.00
2018-08-11T00:45:45.984Z,21.90
2018-08-11T00:46:17.749Z,21.90
2018-08-11T00:46:49.516Z,21.90
2018-08-11T00:47:21.278Z,21.90
2018-08-11T00:47:53.068Z,21.90
2018-08-11T00:48:24.819Z,21.90
2018-08-11T00:48:56.573Z,21.90
2018-08-11T00:49:28.461Z,21.80
2018-08-11T00:50:00.160Z,21.80
2018-08-11T00:50:31.938Z,21.90
2018-08-11T00:51:03.698Z,21.90
2018-08-11T00:51:35.472Z,22.00
2018-08-11T00:52:07.241Z,22.00
2018-08-11T00:52:39.027Z,22.00
2018-08-11T00:53:10.773Z,22.00
2018-08-11T00:53:42.543Z,22.00
2018-08-11T00:54:14.320Z,22.00
2018-08-11T00:54:46.095Z,22.00
2018-08-11T00:55:17.876Z,22.00
2018-08-11T00:55:49.798Z,22.00
2018-08-11T00:56:21.545Z,22.00
2018-08-11T00:56:53.306Z,22.10
2018-08-11T00:57:25.113Z,22.10
2018-08-11T00:57:56.901Z,22.00
2018-08-11T00:58:28.664Z,22.00
2018-08-11T00:59:00.429Z,22.00
2018-08-11T00:59:32.207Z,22.00
2018-08-11T01:00:03.968Z,22.00
2018-08-11T01:00:35.742Z,22.00
2018-08-11T01:01:07.512Z,22.00
2018-08-11T01:01:39.300Z,22.00
2018-08-11T01:02:11.146Z,22.00
2018-08-11T01:02:42.898Z,22.00
2018-08-11T01:03:14.656Z,21.90
2018-08-11T01:03:46.431Z,22.00
2018-08-11T01:04:18.236Z,22.00
2018-08-11T01:04:50.036Z,22.00
2018-08-11T01:05:21.813Z,21.90
2018-08-11T01:05:53.578Z,21.90
2018-08-11T01:06:25.407Z,21.90
2018-08-11T01:06:57.158Z,22.00
2018-08-11T01:07:28.909Z,22.00
2018-08-11T01:08:00.682Z,22.00
2018-08-11T01:08:32.444Z,22.00
2018-08-11T01:09:04.212Z,22.00
2018-08-11T01:09:35.981Z,22.00
2018-08-11T01:10:07.749Z,22.00
2018-08-11T01:10:39.505Z,22.00
2018-08-11T01:11:11.289Z,22.10
2018-08-11T01:11:43.057Z,22.10
2018-08-11T01:12:14.824Z,22.10
2018-08-11T01:12:46.608Z,22.10
2018-08-11T01:13:18.393Z,22.10
2018-08-11T01:13:50.152Z,22.10
2018-08-11T01:14:21.933Z,22.10
2018-08-11T01:14:53.715Z,22.10
2018-08-11T01:15:25.494Z,22.10
2018-08-11T01:15:57.273Z,22.10
2018-08-11T01:16:29.048Z,22.10
2018-08-11T01:17:00.805Z,22.10
2018-08-11T01:17:32.566Z,22.10
2018-08-11T01:18:04.330Z,22.20
2018-08-11T01:18:36.118Z,22.20
2018-08-11T01:19:07.896Z,22.20
2018-08-11T01:19:39.668Z,22.20
2018-08-11T01:20:11.453Z,22.20
2018-08-11T01:20:43.221Z,22.20
2018-08-11T01:21:14.982Z,22.20
2018-08-11T01:21:46.737Z,22.20
2018-08-11T01:22:18.558Z,22.10
2018-08-11T01:22:50.335Z,22.20
2018-08-11T01:23:22.083Z,22.10
2018-08-11T01:23:53.846Z,22.10
2018-08-11T01:24:25.739Z,22.10
2018-08-11T01:24:57.494Z,22.10
2018-08-11T01:25:29.248Z,22.10
2018-08-11T01:26:01.034Z,22.00
2018-08-11T01:26:32.793Z,22.10
2018-08-11T01:27:04.548Z,22.10
2018-08-11T01:27:36.322Z,22.10
2018-08-11T01:28:08.117Z,22.10
2018-08-11T01:28:39.867Z,22.10
2018-08-11T01:29:11.642Z,22.10
2018-08-11T01:29:43.396Z,22.00
2018-08-11T01:30:15.196Z,22.00
2018-08-11T01:30:46.962Z,22.10
2018-08-11T01:31:18.739Z,22.10
2018-08-11T01:31:50.502Z,22.20
2018-08-11T01:32:22.341Z,22.10
2018-08-11T01:32:54.113Z,22.10
2018-08-11T01:33:26.010Z,22.10
2018-08-11T01:33:57.773Z,22.10
2018-08-11T01:34:29.532Z,22.10
2018-08-11T01:35:01.287Z,22.10
2018-08-11T01:35:33.045Z,22.10
2018-08-11T01:36:04.808Z,22.10
2018-08-11T01:36:36.596Z,22.10
2018-08-11T01:37:08.347Z,22.10
2018-08-11T01:37:40.124Z,22.10
2018-08-11T01:38:11.989Z,22.20
2018-08-11T01:38:43.768Z,22.20
2018-08-11T01:39:15.532Z,22.20
2018-08-11T01:39:47.305Z,22.30
2018-08-11T01:40:19.072Z,22.20
2018-08-11T01:40:50.842Z,22.30
2018-08-11T01:41:22.637Z,22.20
2018-08-11T01:41:54.392Z,22.20
2018-08-11T01:42:26.161Z,22.20
2018-08-11T01:42:57.933Z,22.20
2018-08-11T01:43:29.696Z,22.20
2018-08-11T01:44:01.477Z,22.10
2018-08-11T01:44:33.240Z,22.10
2018-08-11T01:45:05.009Z,22.10
2018-08-11T01:45:36.783Z,22.10
2018-08-11T01:46:08.552Z,22.10
2018-08-11T01:46:40.325Z,22.00
2018-08-11T01:47:12.092Z,22.10
2018-08-11T01:47:43.856Z,22.10
2018-08-11T01:48:15.633Z,22.00
2018-08-11T01:48:47.396Z,22.00
2018-08-11T01:49:19.174Z,22.10
2018-08-11T01:49:50.921Z,22.10
2018-08-11T01:50:22.706Z,22.10
2018-08-11T01:50:54.465Z,22.10
2018-08-11T01:51:26.259Z,22.10
2018-08-11T01:51:58.105Z,22.00
2018-08-11T01:52:29.861Z,22.10
2018-08-11T01:53:01.649Z,22.10
2018-08-11T01:53:33.536Z,22.10
2018-08-11T01:54:05.288Z,22.10
2018-08-11T01:54:37.047Z,22.10
2018-08-11T01:55:08.824Z,22.10
2018-08-11T01:55:40.587Z,22.10
2018-08-11T01:56:12.364Z,22.10
2018-08-11T01:56:44.125Z,22.10
2018-08-11T01:57:15.900Z,22.10
2018-08-11T01:57:47.710Z,22.10
2018-08-11T01:58:19.643Z,22.00
2018-08-11T01:58:51.436Z,22.10
2018-08-11T01:59:23.189Z,22.00
2018-08-11T01:59:54.970Z,22.00
2018-08-11T02:00:26.789Z,22.00
2018-08-11T02:00:58.545Z,22.00
2018-08-11T02:01:30.313Z,22.00
2018-08-11T02:02:02.082Z,22.00
2018-08-11T02:02:33.862Z,22.00
2018-08-11T02:03:05.616Z,21.90
2018-08-11T02:03:37.375Z,21.80
2018-08-11T02:04:09.163Z,21.80
2018-08-11T02:04:40.951Z,21.80
2018-08-11T02:05:12.825Z,21.80
2018-08-11T02:05:44.577Z,21.70
2018-08-11T02:06:16.351Z,21.70
2018-08-11T02:06:48.124Z,21.70
2018-08-11T02:07:19.888Z,21.80
2018-08-11T02:07:51.671Z,21.80
2018-08-11T02:08:23.422Z,21.80
2018-08-11T02:08:55.184Z,21.80
2018-08-11T02:09:26.946Z,21.80
2018-08-11T02:09:58.721Z,21.70
2018-08-11T02:10:30.479Z,21.70
2018-08-11T02:11:02.272Z,21.70
2018-08-11T02:11:34.021Z,21.70
2018-08-11T02:12:05.790Z,21.70
2018-08-11T02:12:37.552Z,21.70
2018-08-11T02:13:09.325Z,21.70
2018-08-11T02:13:41.114Z,21.60
2018-08-11T02:14:12.864Z,21.50
2018-08-11T02:14:44.639Z,21.40
2018-08-11T02:15:16.430Z,21.40
2018-08-11T02:15:48.200Z,21.30
2018-08-11T02:16:19.973Z,21.30
2018-08-11T02:16:51.740Z,21.30
2018-08-11T02:17:23.524Z,21.20
2018-08-11T02:17:55.288Z,21.20
2018-08-11T02:18:27.048Z,21.20
2018-08-11T02:18:58.800Z,21.20
2018-08-11T02:19:30.574Z,21.10
2018-08-11T02:20:02.344Z,21.10
2018-08-11T02:20:34.115Z,21.00
2018-08-11T02:21:05.871Z,21.10
2018-08-11T02:21:37.655Z,21.10
2018-08-11T02:22:09.415Z,21.10
2018-08-11T02:22:41.202Z,21.20
2018-08-11T02:23:12.972Z,21.20
2018-08-11T02:23:44.729Z,21.30
2018-08-11T02:24:16.513Z,21.40
2018-08-11T02:24:48.293Z,21.40
2018-08-11T02:25:20.034Z,21.40
2018-08-11T02:25:51.808Z,21.40
2018-08-11T02:26:23.575Z,21.50
2018-08-11T02:26:55.326Z,21.40
2018-08-11T02:27:27.089Z,21.40
2018-08-11T02:27:58.863Z,21.40
2018-08-11T02:28:30.635Z,21.40
2018-08-11T02:29:02.397Z,21.40
2018-08-11T02:29:34.158Z,21.40
2018-08-11T02:30:05.918Z,21.50
2018-08-11T02:30:37.691Z,21.50
2018-08-11T02:31:09.436Z,21.40
2018-08-11T02:31:41.201Z,21.40
2018-08-11T02:32:13.106Z,21.40
2018-08-11T02:32:44.878Z,21.30
2018-08-11T02:33:16.645Z,21.30
2018-08-11T02:33:48.408Z,21.30
2018-08-11T02:34:20.284Z,21.20
2018-08-11T02:34:51.955Z,21.20
2018-08-11T02:35:23.730Z,21.20
2018-08-11T02:35:55.497Z,21.30
2018-08-11T02:36:27.264Z,21.30
2018-08-11T02:36:59.029Z,21.20
2018-08-11T02:37:30.796Z,21.30
2018-08-11T02:38:02.624Z,21.30
2018-08-11T02:38:34.460Z,21.40
2018-08-11T02:39:06.208Z,21.40
2018-08-11T02:39:37.956Z,21.40
2018-08-11T02:40:09.741Z,21.40
2018-08-11T02:40:41.521Z,21.40
2018-08-11T02:41:13.262Z,21.50
2018-08-11T02:41:45.029Z,21.50
2018-08-11T02:42:16.788Z,21.50
2018-08-11T02:42:48.573Z,21.60
2018-08-11T02:43:20.329Z,21.60
2018-08-11T02:43:52.094Z,21.60
2018-08-11T02:44:23.855Z,21.60
2018-08-11T02:44:55.628Z,21.60
2018-08-11T02:45:27.400Z,21.60
2018-08-11T02:45:59.173Z,21.70
2018-08-11T02:46:31.038Z,21.70
2018-08-11T02:47:02.809Z,21.70
2018-08-11T02:47:34.577Z,21.70
2018-08-11T02:48:06.328Z,21.70
2018-08-11T02:48:38.096Z,21.70
2018-08-11T02:49:09.868Z,21.70
2018-08-11T02:49:41.630Z,21.70
2018-08-11T02:50:13.401Z,21.70
2018-08-11T02:50:45.168Z,21.70
2018-08-11T02:51:16.937Z,21.70
2018-08-11T02:51:48.724Z,21.70
2018-08-11T02:52:20.480Z,21.70
2018-08-11T02:52:52.262Z,21.60
2018-08-11T02:53:24.022Z,21.60
2018-08-11T02:53:55.786Z,21.70
2018-08-11T02:54:27.557Z,21.60
2018-08-11T02:54:59.320Z,21.60
2018-08-11T02:55:31.081Z,21.60
2018-08-11T02:56:02.847Z,21.50
2018-08-11T02:56:34.604Z,21.50
2018-08-11T02:57:06.367Z,21.50
2018-08-11T02:57:38.132Z,21.50
2018-08-11T02:58:09.937Z,21.50
2018-08-11T02:58:41.787Z,21.50
2018-08-11T02:59:13.560Z,21.50
2018-08-11T02:59:45.325Z,21.50
2018-08-11T03:00:17.081Z,21.50
2018-08-11T03:00:48.842Z,21.50
2018-08-11T03:01:20.632Z,21.40
2018-08-11T03:01:52.417Z,21.30
2018-08-11T03:02:24.230Z,21.20
2018-08-11T03:02:55.961Z,21.20
2018-08-11T03:03:27.742Z,21.20
2018-08-11T03:03:59.500Z,21.00
2018-08-11T03:04:31.285Z,20.90
2018-08-11T03:05:03.045Z,21.00
2018-08-11T03:05:34.821Z,20.90
2018-08-11T03:06:06.596Z,20.90
2018-08-11T03:06:38.376Z,20.80
2018-08-11T03:07:10.141Z,20.70
2018-08-11T03:07:41.899Z,20.70
2018-08-11T03:08:13.672Z,20.80
2018-08-11T03:08:45.513Z,20.80
2018-08-11T03:09:17.288Z,20.80
2018-08-11T03:09:49.043Z,20.70
2018-08-11T03:10:20.804Z,20.70
2018-08-11T03:10:52.573Z,20.70
2018-08-11T03:11:24.360Z,20.80
2018-08-11T03:11:56.148Z,20.80
2018-08-11T03:12:27.904Z,20.90
2018-08-11T03:12:59.673Z,20.80
2018-08-11T03:13:31.430Z,20.90
2018-08-11T03:14:03.236Z,20.80
2018-08-11T03:14:34.975Z,20.80
2018-08-11T03:15:06.717Z,20.90
2018-08-11T03:15:38.495Z,20.80
2018-08-11T03:16:10.308Z,20.80
2018-08-11T03:16:42.050Z,20.80
2018-08-11T03:17:13.829Z,20.80
2018-08-11T03:17:45.588Z,20.80
2018-08-11T03:18:17.365Z,20.80
2018-08-11T03:18:49.144Z,20.80
2018-08-11T03:19:20.916Z,20.90
2018-08-11T03:19:52.675Z,20.80
2018-08-11T03:20:24.461Z,20.90
2018-08-11T03:20:56.197Z,21.00
2018-08-11T03:21:27.985Z,21.00
2018-08-11T03:21:59.759Z,21.10
2018-08-11T03:22:31.528Z,21.10
2018-08-11T03:23:03.298Z,21.10
2018-08-11T03:23:35.063Z,21.20
2018-08-11T03:24:06.837Z,21.20
2018-08-11T03:24:39.251Z,21.20
2018-08-11T03:25:11.007Z,21.20
2018-08-11T03:25:42.765Z,21.20
2018-08-11T03:26:14.528Z,21.10
2018-08-11T03:26:46.297Z,21.20
2018-08-11T03:27:18.055Z,21.20
2018-08-11T03:27:49.814Z,21.20
2018-08-11T03:28:21.591Z,21.30
2018-08-11T03:28:53.343Z,21.30
2018-08-11T03:29:25.109Z,21.30
2018-08-11T03:29:56.871Z,21.30
2018-08-11T03:30:28.644Z,21.20
2018-08-11T03:31:00.403Z,21.20
2018-08-11T03:31:32.147Z,21.20
2018-08-11T03:32:03.921Z,21.20
2018-08-11T03:32:35.669Z,21.20
2018-08-11T03:33:07.435Z,21.20
2018-08-11T03:33:39.200Z,21.20
2018-08-11T03:34:10.957Z,21.20
2018-08-11T03:34:42.704Z,21.20
2018-08-11T03:35:14.472Z,21.20
2018-08-11T03:35:46.226Z,21.20
2018-08-11T03:36:17.996Z,21.20
2018-08-11T03:36:49.753Z,21.30
2018-08-11T03:37:21.520Z,21.30
2018-08-11T03:37:53.283Z,21.20
2018-08-11T03:38:25.026Z,21.30
2018-08-11T03:38:56.800Z,21.20
2018-08-11T03:39:28.552Z,21.30
2018-08-11T03:40:00.318Z,21.20
2018-08-11T03:40:32.094Z,21.10
2018-08-11T03:41:03.867Z,21.00
2018-08-11T03:41:35.626Z,20.90
2018-08-11T03:42:07.384Z,20.80
2018-08-11T03:42:39.146Z,20.70
2018-08-11T03:43:10.916Z,20.70
2018-08-11T03:43:42.689Z,22.20
2018-08-11T03:44:14.455Z,20.70
2018-08-11T03:44:46.228Z,20.60
2018-08-11T03:45:18.005Z,20.60
2018-08-11T03:45:49.767Z,20.50
2018-08-11T03:46:21.541Z,20.50
2018-08-11T03:46:53.320Z,20.40
2018-08-11T03:47:25.114Z,20.40
2018-08-11T03:47:56.873Z,20.40
2018-08-11T03:48:28.661Z,20.40
2018-08-11T03:49:00.432Z,20.40
2018-08-11T03:49:32.188Z,20.30
2018-08-11T03:50:03.958Z,20.40
2018-08-11T03:50:35.723Z,20.40
2018-08-11T03:51:07.493Z,20.40
2018-08-11T03:51:39.280Z,20.50
2018-08-11T03:52:11.037Z,20.60
2018-08-11T03:52:42.801Z,20.70
2018-08-11T03:53:14.580Z,20.80
2018-08-11T03:53:46.347Z,20.80
2018-08-11T03:54:18.114Z,20.90
2018-08-11T03:54:49.860Z,21.00
2018-08-11T03:55:21.625Z,21.00
2018-08-11T03:55:53.395Z,21.10
2018-08-11T03:56:25.145Z,21.10
2018-08-11T03:56:56.940Z,21.20
2018-08-11T03:57:28.726Z,21.20
2018-08-11T03:58:00.482Z,21.20
2018-08-11T03:58:32.244Z,21.20
2018-08-11T03:59:04.019Z,21.30
2018-08-11T03:59:35.824Z,21.30
2018-08-11T04:00:07.552Z,21.20
2018-08-11T04:00:39.305Z,21.20
2018-08-11T04:01:11.107Z,21.20
2018-08-11T04:01:42.870Z,21.30
2018-08-11T04:02:14.633Z,21.30
2018-08-11T04:02:46.413Z,21.30
2018-08-11T04:03:18.180Z,21.40
2018-08-11T04:03:49.961Z,21.30
2018-08-11T04:04:21.712Z,21.40
2018-08-11T04:04:53.464Z,21.40
2018-08-11T04:05:25.226Z,21.40
2018-08-11T04:05:56.998Z,21.40
2018-08-11T04:06:28.834Z,21.20
2018-08-11T04:07:00.611Z,21.20
2018-08-11T04:07:32.384Z,21.20
2018-08-11T04:08:04.137Z,21.10
2018-08-11T04:08:35.900Z,21.10
2018-08-11T04:09:07.687Z,21.00
2018-08-11T04:09:39.452Z,20.90
2018-08-11T04:10:11.205Z,21.00
2018-08-11T04:10:42.978Z,20.90
2018-08-11T04:11:14.747Z,20.80
2018-08-11T04:11:46.549Z,20.70
2018-08-11T04:12:18.303Z,20.70
2018-08-11T04:12:50.056Z,20.70
2018-08-11T04:13:21.833Z,20.70
2018-08-11T04:13:53.601Z,20.70
2018-08-11T04:14:25.414Z,20.60
2018-08-11T04:14:57.171Z,20.60
2018-08-11T04:15:28.927Z,20.60
2018-08-11T04:16:00.707Z,20.60
2018-08-11T04:16:32.482Z,20.70
2018-08-11T04:17:04.247Z,20.70
2018-08-11T04:17:36.031Z,20.70
2018-08-11T04:18:07.789Z,20.70
2018-08-11T04:18:39.580Z,20.80
2018-08-11T04:19:11.349Z,20.80
2018-08-11T04:19:43.115Z,20.90
2018-08-11T04:20:14.893Z,21.00
2018-08-11T04:20:46.749Z,21.00
2018-08-11T04:21:18.524Z,21.10
2018-08-11T04:21:50.295Z,21.10
2018-08-11T04:22:22.060Z,21.20
2018-08-11T04:22:53.836Z,21.20
2018-08-11T04:23:25.604Z,21.20
2018-08-11T04:23:57.401Z,21.20
2018-08-11T04:24:29.172Z,21.20
2018-08-11T04:25:00.933Z,21.10
2018-08-11T04:25:32.713Z,21.10
2018-08-11T04:26:04.592Z,21.10
2018-08-11T04:26:36.370Z,21.10
2018-08-11T04:27:08.134Z,21.20
2018-08-11T04:27:39.904Z,21.20
2018-08-11T04:28:11.661Z,21.00
2018-08-11T04:28:43.433Z,21.20
2018-08-11T04:29:15.209Z,21.20
2018-08-11T04:29:46.984Z,21.20
2018-08-11T04:30:18.760Z,21.20
2018-08-11T04:30:50.513Z,21.20
2018-08-11T04:31:22.280Z,21.20
2018-08-11T04:31:54.049Z,21.20
2018-08-11T04:32:25.789Z,21.20
2018-08-11T04:32:57.657Z,21.20
2018-08-11T04:33:29.427Z,21.30
2018-08-11T04:34:01.218Z,21.30
2018-08-11T04:34:33.056Z,21.30
2018-08-11T04:35:04.804Z,21.30
2018-08-11T04:35:36.591Z,21.30
2018-08-11T04:36:08.357Z,21.30
2018-08-11T04:36:40.124Z,21.20
2018-08-11T04:37:11.894Z,21.20
2018-08-11T04:37:43.659Z,21.20
2018-08-11T04:38:15.425Z,21.20
2018-08-11T04:38:47.193Z,21.20
2018-08-11T04:39:18.969Z,21.20
2018-08-11T04:39:50.750Z,21.10
2018-08-11T04:40:22.511Z,21.00
2018-08-11T04:40:54.274Z,21.00
2018-08-11T04:41:26.037Z,20.90
2018-08-11T04:41:57.789Z,20.80
2018-08-11T04:42:29.556Z,20.90
2018-08-11T04:43:01.313Z,20.90
2018-08-11T04:43:33.096Z,20.90
2018-08-11T04:44:04.865Z,20.90
2018-08-11T04:44:36.643Z,21.00
2018-08-11T04:45:08.401Z,21.00
2018-08-11T04:45:40.176Z,21.00
2018-08-11T04:46:11.947Z,21.00
2018-08-11T04:46:43.742Z,20.90
2018-08-11T04:47:15.456Z,20.90
2018-08-11T04:47:47.211Z,20.90
2018-08-11T04:48:18.985Z,20.90
2018-08-11T04:48:50.753Z,20.90
2018-08-11T04:49:22.512Z,21.00
2018-08-11T04:49:54.269Z,21.00
2018-08-11T04:50:26.023Z,21.10
2018-08-11T04:50:57.788Z,21.10
2018-08-11T04:51:29.549Z,21.00
2018-08-11T04:52:01.340Z,21.00
2018-08-11T04:52:33.121Z,21.00
2018-08-11T04:53:04.884Z,21.00
2018-08-11T04:53:36.766Z,21.10
2018-08-11T04:54:08.519Z,21.10
2018-08-11T04:54:40.273Z,21.20
2018-08-11T04:55:12.052Z,21.20
2018-08-11T04:55:43.820Z,21.20
2018-08-11T04:56:15.590Z,21.20
2018-08-11T04:56:47.371Z,21.20
2018-08-11T04:57:19.255Z,21.20
2018-08-11T04:57:51.018Z,21.20
2018-08-11T04:58:22.813Z,21.30
2018-08-11T04:58:54.556Z,21.40
2018-08-11T04:59:26.344Z,21.30
2018-08-11T04:59:58.103Z,21.40
2018-08-11T05:00:29.920Z,21.30
2018-08-11T05:01:01.698Z,21.40
2018-08-11T05:01:33.465Z,21.40
2018-08-11T05:02:05.231Z,21.40
2018-08-11T05:02:37.019Z,21.40
2018-08-11T05:03:08.779Z,21.40
2018-08-11T05:03:40.541Z,21.30
2018-08-11T05:04:12.305Z,21.30
2018-08-11T05:04:44.074Z,21.30
2018-08-11T05:05:15.862Z,21.20
2018-08-11T05:05:47.633Z,21.20
2018-08-11T05:06:19.384Z,21.20
2018-08-11T05:06:51.157Z,21.20
2018-08-11T05:07:22.933Z,21.30
2018-08-11T05:07:54.700Z,21.30
2018-08-11T05:08:26.733Z,21.30
2018-08-11T05:08:58.568Z,21.30
2018-08-11T05:09:30.319Z,21.30
2018-08-11T05:10:02.095Z,21.40
2018-08-11T05:10:33.868Z,21.30
2018-08-11T05:11:05.631Z,21.40
2018-08-11T05:11:37.382Z,21.40
2018-08-11T05:12:09.404Z,21.40
2018-08-11T05:12:41.719Z,21.40
2018-08-11T05:13:13.629Z,21.40
2018-08-11T05:13:45.421Z,21.40
2018-08-11T05:14:17.190Z,21.40
2018-08-11T05:14:48.960Z,21.40
2018-08-11T05:15:20.833Z,21.40
2018-08-11T05:15:52.589Z,21.40
2018-08-11T05:16:24.348Z,21.30
2018-08-11T05:16:56.117Z,21.20
2018-08-11T05:17:27.879Z,21.20
2018-08-11T05:17:59.673Z,21.20
2018-08-11T05:18:31.447Z,21.20
2018-08-11T05:19:03.204Z,21.20
2018-08-11T05:19:34.999Z,21.20
2018-08-11T05:20:06.844Z,21.20
2018-08-11T05:20:38.600Z,21.20
2018-08-11T05:21:10.433Z,21.10
2018-08-11T05:21:42.186Z,21.20
2018-08-11T05:22:13.968Z,21.20
2018-08-11T05:22:45.742Z,21.20
2018-08-11T05:23:17.519Z,21.30
2018-08-11T05:23:49.319Z,21.40
2018-08-11T05:24:21.078Z,21.40
2018-08-11T05:24:52.846Z,21.40
2018-08-11T05:25:24.625Z,21.40
2018-08-11T05:25:56.389Z,21.40
2018-08-11T05:26:28.168Z,21.40
2018-08-11T05:26:59.948Z,21.40
2018-08-11T05:27:31.735Z,21.30
2018-08-11T05:28:03.512Z,21.50
2018-08-11T05:28:35.270Z,21.50
2018-08-11T05:29:07.050Z,21.40
2018-08-11T05:29:38.840Z,21.40
2018-08-11T05:30:10.601Z,21.30
2018-08-11T05:30:42.458Z,21.40
2018-08-11T05:31:14.234Z,21.30
2018-08-11T05:31:45.979Z,21.40
2018-08-11T05:32:17.757Z,21.40
2018-08-11T05:32:49.552Z,21.40
2018-08-11T05:33:21.358Z,21.40
2018-08-11T05:33:53.136Z,21.50
2018-08-11T05:34:24.924Z,21.50
2018-08-11T05:34:56.713Z,21.40
2018-08-11T05:35:28.493Z,21.40
2018-08-11T05:36:00.289Z,21.40
2018-08-11T05:36:32.097Z,21.40
2018-08-11T05:37:03.900Z,21.40
2018-08-11T05:37:35.680Z,21.40
2018-08-11T05:38:07.576Z,21.40
2018-08-11T05:38:39.441Z,21.40
2018-08-11T05:39:11.205Z,21.40
2018-08-11T05:39:42.974Z,21.40
2018-08-11T05:40:14.742Z,21.40
2018-08-11T05:40:46.515Z,21.40
2018-08-11T05:41:18.290Z,21.40
2018-08-11T05:41:50.065Z,21.40
2018-08-11T05:42:22.052Z,21.50
2018-08-11T05:42:53.898Z,21.50
2018-08-11T05:43:25.711Z,21.40
2018-08-11T05:43:57.508Z,21.50
2018-08-11T05:44:29.283Z,21.40
2018-08-11T05:45:01.068Z,21.50
2018-08-11T05:45:32.852Z,21.40
2018-08-11T05:46:04.633Z,21.40
2018-08-11T05:46:36.404Z,21.50
2018-08-11T05:47:08.158Z,21.50
2018-08-11T05:47:39.929Z,21.50
2018-08-11T05:48:11.728Z,21.40
2018-08-11T05:48:43.553Z,21.40
2018-08-11T05:49:15.305Z,21.40
2018-08-11T05:49:47.194Z,21.40
2018-08-11T05:50:19.007Z,21.30
2018-08-11T05:50:50.823Z,21.20
2018-08-11T05:51:22.600Z,21.10
2018-08-11T05:51:54.365Z,21.20
2018-08-11T05:52:26.166Z,21.10
2018-08-11T05:52:57.911Z,21.00
2018-08-11T05:53:29.681Z,21.10
2018-08-11T05:54:01.481Z,21.00
2018-08-11T05:54:33.244Z,21.00
2018-08-11T05:55:05.053Z,21.00
2018-08-11T05:55:36.913Z,21.00
2018-08-11T05:56:08.779Z,21.00
2018-08-11T05:56:40.544Z,21.00
2018-08-11T05:57:12.490Z,21.00
2018-08-11T05:57:44.253Z,21.00
2018-08-11T05:58:16.056Z,21.00
2018-08-11T05:58:47.821Z,21.00
2018-08-11T05:59:19.588Z,21.10
2018-08-11T05:59:51.401Z,21.10
2018-08-11T06:00:23.210Z,21.00
2018-08-11T06:00:54.988Z,21.00
2018-08-11T06:01:26.741Z,21.10
2018-08-11T06:01:58.521Z,21.10
2018-08-11T06:02:30.584Z,21.00
2018-08-11T06:03:02.403Z,21.20
2018-08-11T06:03:34.174Z,21.20
2018-08-11T06:04:05.968Z,21.20
2018-08-11T06:04:37.721Z,21.30
2018-08-11T06:05:09.480Z,21.30
2018-08-11T06:05:41.261Z,21.30
2018-08-11T06:06:13.039Z,21.40
2018-08-11T06:06:44.800Z,21.40
2018-08-11T06:07:16.565Z,21.30
2018-08-11T06:07:48.369Z,21.40
2018-08-11T06:08:20.164Z,21.40
2018-08-11T06:08:52.236Z,21.30
2018-08-11T06:09:24.456Z,21.30
2018-08-11T06:09:56.255Z,21.30
2018-08-11T06:10:28.034Z,21.30
2018-08-11T06:10:59.830Z,21.30
2018-08-11T06:11:31.626Z,21.30
2018-08-11T06:12:03.420Z,21.20
2018-08-11T06:12:35.195Z,21.10
2018-08-11T06:13:06.991Z,21.20
2018-08-11T06:13:38.764Z,21.20
2018-08-11T06:14:10.550Z,21.20
2018-08-11T06:14:42.312Z,21.20
2018-08-11T06:15:14.081Z,21.20
2018-08-11T06:15:45.936Z,21.30
2018-08-11T06:16:17.686Z,21.40
2018-08-11T06:16:49.461Z,21.30
2018-08-11T06:17:21.226Z,21.30
2018-08-11T06:17:53.048Z,21.40
2018-08-11T06:18:24.800Z,21.30
2018-08-11T06:18:57.032Z,21.30
2018-08-11T06:19:28.811Z,21.20
2018-08-11T06:20:00.607Z,21.30
2018-08-11T06:20:32.372Z,21.40
2018-08-11T06:21:05.187Z,21.30
2018-08-11T06:21:37.278Z,21.40
2018-08-11T06:22:09.573Z,21.40
2018-08-11T06:22:42.052Z,21.40
2018-08-11T06:23:13.844Z,21.30
2018-08-11T06:23:45.900Z,21.40
2018-08-11T06:24:17.740Z,21.40
2018-08-11T06:24:49.515Z,21.40
2018-08-11T06:25:21.336Z,21.30
2018-08-11T06:25:53.126Z,21.30
2018-08-11T06:26:24.897Z,21.30
2018-08-11T06:26:56.671Z,21.30
2018-08-11T06:27:28.436Z,21.10
2018-08-11T06:28:00.241Z,21.00
2018-08-11T06:28:32.012Z,20.90
2018-08-11T06:29:03.768Z,20.90
2018-08-11T06:29:35.519Z,20.90
2018-08-11T06:30:07.340Z,21.00
2018-08-11T06:30:39.195Z,21.00
2018-08-11T06:31:10.972Z,20.90
2018-08-11T06:31:42.832Z,20.90
2018-08-11T06:32:14.622Z,20.90
2018-08-11T06:32:46.383Z,21.00
2018-08-11T06:33:18.339Z,21.00
2018-08-11T06:33:50.094Z,21.10
2018-08-11T06:34:21.856Z,21.20
2018-08-11T06:34:53.646Z,21.20
2018-08-11T06:35:25.430Z,21.10
2018-08-11T06:35:57.257Z,21.20
2018-08-11T06:36:29.029Z,21.20
2018-08-11T06:37:00.798Z,21.10
2018-08-11T06:37:32.555Z,21.20
2018-08-11T06:38:04.323Z,21.20
2018-08-11T06:38:36.083Z,21.20
2018-08-11T06:39:07.887Z,21.20
2018-08-11T06:39:39.952Z,21.20
2018-08-11T06:40:12.047Z,21.20
2018-08-11T06:40:45.062Z,21.20
2018-08-11T06:41:17.208Z,21.10
2018-08-11T06:41:48.955Z,21.20
2018-08-11T06:42:20.712Z,21.20
2018-08-11T06:42:52.493Z,21.20
2018-08-11T06:43:24.271Z,21.20
2018-08-11T06:43:56.031Z,21.20
2018-08-11T06:44:27.809Z,21.20
2018-08-11T06:44:59.567Z,21.10
2018-08-11T06:45:31.329Z,21.20
2018-08-11T06:46:03.141Z,21.20
2018-08-11T06:46:34.967Z,21.30
2018-08-11T06:47:06.757Z,21.30
2018-08-11T06:47:38.637Z,21.40
2018-08-11T06:48:10.747Z,21.30
2018-08-11T06:48:42.504Z,21.40
2018-08-11T06:49:14.254Z,21.30